Flight Track Log - Related Links

Times and Time Zones

All times are in EDT time to prevent confusion due to time zone crossing. See the FDX1486 flight status page for this flight to view local times or setup timezone preferences in your user account.


Time Position Orientation Groundspeed Altitude Reporting Facility
EDT Latitude Longitude Course Direction KTS MPH feet Rate Location/Type
Tue 05:02:41 AM 35.0167 -89.9667 165° South 171 197 1,200  Level Memphis TRACON
Tue 05:03:47 AM 34.9667 -89.9500 165° South 244 281 3,700 3,045 Climbing Memphis TRACON
Tue 05:04:53 AM 34.9167 -89.8833 132° Southeast 315 362 7,900 3,373 Climbing Memphis TRACON
Tue 05:06:20 AM 34.9831 -89.7589 57° Northeast 350 403 12,300 2,980 Climbing Memphis Center
Tue 05:07:20 AM 35.0783 -89.6719 37° Northeast 371 427 15,200 2,850 Climbing Memphis Center
Tue 05:08:20 AM 35.1781 -89.5975 31° Northeast 401 461 18,000 2,950 Climbing Memphis Center
Tue 05:09:20 AM 35.2631 -89.4872 47° Northeast 425 489 21,100 2,800 Climbing Memphis Center
Tue 05:10:20 AM 35.3517 -89.3744 46° Northeast 443 510 23,600 2,350 Climbing Memphis Center
Tue 05:11:20 AM 35.4364 -89.2561 49° Northeast 460 529 25,800 2,150 Climbing Memphis Center
Tue 05:12:20 AM 35.5331 -89.1325 46° Northeast 484 557 27,900 2,450 Climbing Memphis Center
Tue 05:13:20 AM 35.6278 -89.0083 47° Northeast 484 557 30,700 499 Climbing Memphis Center
Tue 05:18:17 AM 36.0830 -88.3970 47° Northeast 35,000 365 Climbing FlightAware ADS-B
Tue 05:19:26 AM 36.1890 -88.2530 48° Northeast 36,400 163 Climbing FlightAware ADS-B
Tue 05:20:49 AM 36.3160 -88.0810 47° Northeast 37,000 54 Climbing FlightAware ADS-B
Tue 05:21:33 AM 36.3820 -87.9900 48° Northeast 37,000  Level FlightAware ADS-B
Tue 05:22:15 AM 36.4460 -87.9030 48° Northeast 37,000  Level FlightAware ADS-B
Tue 05:22:55 AM 36.5050 -87.8210 48° Northeast 37,000  Level FlightAware ADS-B
Tue 05:23:23 AM 36.5470 -87.7650 47° Northeast 37,000  Level FlightAware ADS-B
Tue 05:24:07 AM 36.6120 -87.6750 48° Northeast 37,000  Level FlightAware ADS-B
Tue 05:24:41 AM 36.6620 -87.6050 48° Northeast 37,000  Level FlightAware ADS-B
Tue 05:25:19 AM 36.7190 -87.5270 48° Northeast 37,000  Level FlightAware ADS-B
Tue 05:26:03 AM 36.7840 -87.4360 48° Northeast 37,000  Level FlightAware ADS-B
Tue 05:26:37 AM 36.8350 -87.3660 48° Northeast 37,000  Level FlightAware ADS-B
Tue 05:27:27 AM 36.9088 -87.2610 49° Northeast 37,000  Level FlightAware ADS-B
Tue 05:28:03 AM 36.9490 -87.1760 59° Northeast 37,000  Level FlightAware ADS-B
Tue 05:28:45 AM 36.9890 -87.0690 65° Northeast 37,000  Level FlightAware ADS-B
Tue 05:29:29 AM 37.0300 -86.9580 65° Northeast 37,000  Level FlightAware ADS-B
Tue 05:30:07 AM 37.0670 -86.8610 64° Northeast 37,000  Level FlightAware ADS-B
Tue 05:30:35 AM 37.0938 -86.7898 65° Northeast 481 554 37,000  Level FlightAware ADS-B
Tue 05:31:06 AM 37.1230 -86.7120 65° Northeast 37,000  Level FlightAware ADS-B
Tue 05:31:25 AM 37.1420 -86.6614 65° Northeast 487 560 37,000  Level FlightAware ADS-B
Tue 05:31:55 AM 37.1712 -86.5846 64° Northeast 490 564 37,000  Level FlightAware ADS-B
Tue 05:32:26 AM 37.2016 -86.5044 65° Northeast 495 570 37,000  Level FlightAware ADS-B
Tue 05:32:58 AM 37.2340 -86.4258 63° Northeast 476 548 37,000  Level FlightAware ADS-B
Tue 05:33:29 AM 37.2801 -86.3561 50° Northeast 498 573 37,000  Level FlightAware ADS-B
Tue 05:34:00 AM 37.3274 -86.2942 46° Northeast 482 555 37,000  Level FlightAware ADS-B
Tue 05:34:33 AM 37.3780 -86.2277 46° Northeast 491 565 37,000  Level FlightAware ADS-B
Tue 05:35:03 AM 37.4260 -86.1651 46° Northeast 501 577 37,000  Level FlightAware ADS-B
Tue 05:35:33 AM 37.4739 -86.1024 46° Northeast 494 568 37,000  Level FlightAware ADS-B
Tue 05:36:04 AM 37.5214 -86.0403 46° Northeast 492 566 37,000  Level FlightAware ADS-B
Tue 05:36:34 AM 37.5689 -85.9788 46° Northeast 478 550 37,000 -98 Level FlightAware ADS-B
Tue 05:37:05 AM 37.6167 -85.9150 47° Northeast 501 577 36,900 -581 Descending FlightAware ADS-B
Tue 05:37:36 AM 37.6647 -85.8516 46° Northeast 494 568 36,400 -991 Descending FlightAware ADS-B
Tue 05:38:43 AM 37.7720 -85.7100 46° Northeast 35,300 -992 Descending FlightAware ADS-B
Tue 05:39:23 AM 37.8360 -85.6250 46° Northeast 34,600 -992 Descending FlightAware ADS-B
Tue 05:40:03 AM 37.9020 -85.5370 46° Northeast 33,900 -991 Descending FlightAware ADS-B
Tue 05:40:39 AM 37.9620 -85.4570 46° Northeast 33,300 -989 Descending FlightAware ADS-B
Tue 05:41:23 AM 38.0320 -85.3620 47° Northeast 32,600 -989 Descending FlightAware ADS-B
Tue 05:42:03 AM 38.0940 -85.2790 46° Northeast 32,000 -990 Descending FlightAware ADS-B
Tue 05:42:40 AM 38.1520 -85.2010 47° Northeast 31,300 -992 Descending FlightAware ADS-B
Tue 05:43:23 AM 38.2200 -85.1090 47° Northeast 31,000 -989 Descending FlightAware ADS-B
Tue 05:44:03 AM 38.2850 -85.0210 47° Northeast 31,000 -1,003 Level FlightAware ADS-B
Tue 05:44:48 AM 38.3550 -84.9270 46° Northeast 31,000 -1,026 Level FlightAware ADS-B
Tue 05:45:28 AM 38.4170 -84.8420 47° Northeast 31,000 -1,053 Level FlightAware ADS-B
Tue 05:46:07 AM 38.4810 -84.7550 47° Northeast 31,000 -1,079 Level FlightAware ADS-B
Tue 05:47:27 AM 38.6080 -84.5800 47° Northeast 31,000 -1,105 Level FlightAware ADS-B
Tue 05:48:03 AM 38.6620 -84.5050 47° Northeast 31,000 -1,163 Level FlightAware ADS-B
Tue 05:49:28 AM 38.7900 -84.3300 47° Northeast 31,000 -1,191 Level FlightAware ADS-B
Tue 05:50:04 AM 38.8420 -84.2570 48° Northeast 29,200 -1,263 Descending FlightAware ADS-B
Tue 05:53:37 AM 39.1650 -83.8040 47° Northeast 16,900 -1,218 Descending FlightAware ADS-B
Tue 05:54:42 AM 39.2520 -83.6810 48° Northeast 13,600 -804 Descending FlightAware ADS-B
Tue 05:56:06 AM 39.3550 -83.5350 48° Northeast 11,100 -670 Descending FlightAware ADS-B
Tue 05:57:07 AM 39.4170 -83.4470 48° Northeast 10,600 -577 Descending FlightAware ADS-B
Tue 05:57:37 AM 39.4450 -83.4100 46° Northeast 9,900 -583 Descending FlightAware ADS-B
Tue 05:58:13 AM 39.4810 -83.3660 43° Northeast 8,900 -556 Descending FlightAware ADS-B
Tue 05:59:27 AM 39.5460 -83.2710 48° Northeast 7,000 -511 Descending FlightAware ADS-B
Tue 06:03:53 AM 39.7600 -82.9890 45° Northeast 3,100 -416 Descending FlightAware ADS-B
Tue 06:04:09 AM 39.7690 -82.9700 58° Northeast 3,100 -189 Level FlightAware ADS-B
Tue 06:04:37 AM 39.7720 -82.9330 84° East 3,100 -194 Level FlightAware ADS-B
Tue 06:04:49 AM 39.7720 -82.9160 90° East 3,100 -205 Level FlightAware ADS-B
Tue 06:05:13 AM 39.7740 -82.8820 86° East 3,100 -210 Level FlightAware ADS-B
Tue 06:05:45 AM 39.7760 -82.8330 87° East 3,100 -221 Level FlightAware ADS-B
Tue 06:06:01 AM 39.7790 -82.8090 81° East 3,100 -238 Level FlightAware ADS-B
Tue 06:06:13 AM 39.7870 -82.7940 55° Northeast 3,100 -247 Level FlightAware ADS-B
Tue 06:06:37 AM 39.8060 -82.7680 46° Northeast 3,100 -254 Level FlightAware ADS-B
Tue 06:07:10 AM 39.8300 -82.7320 49° Northeast 3,100 -271 Level FlightAware ADS-B
Tue 06:07:21 AM 39.8380 -82.7210 47° Northeast 3,100 -297 Level FlightAware ADS-B
Tue 06:07:53 AM 39.8660 -82.6890 41° Northeast 3,000 -306 Descending FlightAware ADS-B
Tue 06:08:05 AM 39.8780 -82.6870 North 2,900 -319 Descending FlightAware ADS-B
Tue 06:08:25 AM 39.8970 -82.6880 358° North 2,700 -311 Descending FlightAware ADS-B
Tue 06:08:53 AM 39.9230 -82.6930 352° North 2,600 -290 Descending FlightAware ADS-B
Tue 06:09:09 AM 39.9300 -82.7070 303° West 2,600 -299 Level FlightAware ADS-B
Tue 06:09:17 AM 39.9310 -82.7160 278° West 2,600 -320 Level FlightAware ADS-B
Tue 06:09:39 AM 39.9270 -82.7390 257° West 2,600 -332 Level FlightAware ADS-B
Tue 06:10:07 AM 39.9190 -82.7670 250° West 2,600 -369 Level FlightAware ADS-B
Tue 06:10:27 AM 39.9130 -82.7860 248° West 2,600 -431 Level FlightAware ADS-B
Tue 06:10:55 AM 39.9010 -82.8120 239° Southwest 2,600 -490 Level FlightAware ADS-B
Tue 06:11:20 AM 39.8870 -82.8290 223° Southwest 2,500 -605 Descending FlightAware ADS-B
Tue 06:11:37 AM 39.8780 -82.8420 228° Southwest 2,300 -702 Descending FlightAware ADS-B
Tue 06:12:05 AM 39.8660 -82.8580 226° Southwest 2,000 -701 Descending FlightAware ADS-B
Tue 06:12:54 AM 39.8469 -82.8817 226° Southwest 147 169 1,400 -550 Descending Indianapolis Center
Tue 06:13:54 AM 39.8231 -82.9136 226° Southwest 138 159 1,000 -400 Descending Indianapolis Center

Login

Don't have an account? Register now (free) for customized features, flight alerts, and more!